Time;durP1;ratioP1;P1;durP2;ratioP2;P2;SDS_P1;SDS_P2;PMS_P1;PMS_P2;Temp;Humidity;BMP_temperature;BMP_pressure;BME280_temperature;BME280_humidity;BME280_pressure;Samples;Min_cycle;Max_cycle;Signal;HPM_P1;HPM_P2
2022/12/21 00:01:17;;;;;;;1999.90;999.90;;;11.80;99.90;;;;;;5052166;28;20028;-74
2022/12/21 00:03:45;;;;;;;1999.90;999.90;;;11.90;99.90;;;;;;5052162;28;20067;-74
2022/12/21 00:06:11;;;;;;;1999.90;999.90;;;11.90;99.90;;;;;;5052045;28;20056;-73
2022/12/21 00:08:39;;;;;;;1999.90;999.90;;;11.90;99.90;;;;;;5052322;28;20407;-73
2022/12/21 00:11:05;;;;;;;1999.90;999.90;;;11.90;99.90;;;;;;5051680;28;20029;-73
2022/12/21 00:13:31;;;;;;;1999.90;999.90;;;11.90;99.90;;;;;;5051785;28;20476;-73
2022/12/21 00:16:03;;;;;;;1999.90;999.90;;;11.80;99.90;;;;;;5052203;28;20021;-73
2022/12/21 00:18:33;;;;;;;1999.90;999.90;;;11.90;99.90;;;;;;5052082;28;20391;-73
2022/12/21 00:21:00;;;;;;;1999.90;999.90;;;11.90;99.90;;;;;;5051817;28;20075;-75
2022/12/21 00:23:26;;;;;;;1999.90;999.90;;;12.00;99.90;;;;;;5051702;28;20500;-74
2022/12/21 00:25:51;;;;;;;1999.90;999.90;;;12.10;99.90;;;;;;5051456;28;20055;-73
2022/12/21 00:28:17;;;;;;;1999.90;999.90;;;12.10;99.90;;;;;;5052092;28;20060;-73
2022/12/21 00:30:43;;;;;;;1999.90;999.90;;;12.00;99.90;;;;;;5051043;28;20032;-75
2022/12/21 00:33:08;;;;;;;1999.90;999.90;;;11.80;99.90;;;;;;5051771;28;20049;-73
2022/12/21 00:35:34;;;;;;;1999.90;999.90;;;11.70;99.90;;;;;;5050623;28;20024;-73
2022/12/21 00:37:59;;;;;;;1999.90;999.90;;;11.50;99.90;;;;;;5051568;28;20092;-74
2022/12/21 00:40:25;;;;;;;1999.90;999.90;;;11.40;99.90;;;;;;5052007;28;20039;-75
2022/12/21 00:42:50;;;;;;;1999.90;999.90;;;11.30;99.90;;;;;;5051590;28;20551;-75
2022/12/21 00:45:16;;;;;;;1999.90;999.90;;;11.30;99.90;;;;;;5051857;28;20054;-73
2022/12/21 00:47:42;;;;;;;1999.90;999.90;;;11.10;99.90;;;;;;5051581;28;20484;-73
2022/12/21 00:50:08;;;;;;;1999.90;999.90;;;11.10;99.90;;;;;;5051474;28;20037;-75
2022/12/21 00:52:34;;;;;;;1999.90;999.90;;;11.00;99.90;;;;;;5051876;28;20021;-73
2022/12/21 00:54:59;;;;;;;1999.90;999.90;;;10.90;99.90;;;;;;5050518;28;20615;-74
2022/12/21 00:57:28;;;;;;;1999.90;999.90;;;10.80;99.90;;;;;;5051460;28;20025;-73
2022/12/21 00:59:53;;;;;;;1999.90;999.90;;;10.80;99.90;;;;;;5051594;28;20032;-73
2022/12/21 01:02:19;;;;;;;1999.90;999.90;;;10.70;99.90;;;;;;5051483;28;20029;-74
2022/12/21 01:04:45;;;;;;;1999.90;999.90;;;10.70;99.90;;;;;;5051583;28;20045;-73
2022/12/21 01:07:10;;;;;;;1999.90;999.90;;;10.60;99.90;;;;;;5051566;28;20021;-74
2022/12/21 01:09:36;;;;;;;1999.90;999.90;;;10.50;99.90;;;;;;5052136;28;20032;-73
2022/12/21 01:12:01;;;;;;;1999.90;999.90;;;10.50;99.90;;;;;;5055037;28;20025;-73
2022/12/21 01:14:27;;;;;;;1999.90;999.90;;;10.50;99.90;;;;;;5055216;28;20412;-75
2022/12/21 01:16:53;;;;;;;1999.90;999.90;;;10.40;99.90;;;;;;5054809;28;20025;-73
2022/12/21 01:19:20;;;;;;;1999.90;999.90;;;10.30;99.90;;;;;;5055132;28;20492;-73
2022/12/21 01:21:46;;;;;;;1999.90;999.90;;;10.30;99.90;;;;;;5054260;28;20407;-73
2022/12/21 01:24:12;;;;;;;1999.90;999.90;;;10.20;99.90;;;;;;5054906;28;20025;-73
2022/12/21 01:26:38;;;;;;;1999.90;999.90;;;10.20;99.90;;;;;;5054945;28;20056;-73
2022/12/21 01:29:04;;;;;;;1999.90;999.90;;;10.10;99.90;;;;;;5053825;28;20462;-73
2022/12/21 01:31:30;;;;;;;1999.90;999.90;;;10.10;99.90;;;;;;5054157;28;20025;-74
2022/12/21 01:33:55;;;;;;;1999.90;999.90;;;10.20;99.90;;;;;;5054957;28;20082;-74
2022/12/21 01:36:23;;;;;;;1999.90;999.90;;;10.10;99.90;;;;;;5054985;28;20029;-73
2022/12/21 01:38:49;;;;;;;1999.90;999.90;;;10.10;99.90;;;;;;5054954;28;20025;-73
2022/12/21 01:41:20;;;;;;;1999.90;999.90;;;10.10;99.90;;;;;;5054411;28;20496;-73
2022/12/21 01:43:54;;;;;;;1999.90;999.90;;;10.00;99.90;;;;;;5053488;28;20051;-73
2022/12/21 01:46:32;;;;;;;1999.90;999.90;;;10.00;99.90;;;;;;5054746;28;20108;-73
2022/12/21 01:49:18;;;;;;;1999.90;999.90;;;10.00;99.90;;;;;;5054804;28;20058;-73
2022/12/21 01:51:56;;;;;;;1999.90;999.90;;;9.90;99.90;;;;;;5054582;28;20017;-73
2022/12/21 01:54:43;;;;;;;1999.90;999.90;;;9.90;99.90;;;;;;5054661;28;20133;-74
2022/12/21 01:57:12;;;;;;;1999.90;999.90;;;9.90;99.90;;;;;;5054543;28;20476;-74
2022/12/21 01:59:45;;;;;;;1999.90;999.90;;;9.80;99.90;;;;;;5053283;28;20061;-73
2022/12/21 02:02:37;;;;;;;1999.90;999.90;;;9.80;99.90;;;;;;5054306;28;20036;-73
2022/12/21 02:05:13;;;;;;;1999.90;999.90;;;9.80;99.90;;;;;;5054289;28;20423;-73
2022/12/21 02:07:40;;;;;;;1999.90;999.90;;;9.70;99.90;;;;;;5054425;28;20021;-73
2022/12/21 02:10:06;;;;;;;1999.90;999.90;;;9.70;99.90;;;;;;5052937;28;20540;-73
2022/12/21 02:12:32;;;;;;;1999.90;999.90;;;9.70;99.90;;;;;;5053943;28;20029;-74
2022/12/21 02:14:58;;;;;;;1999.90;999.90;;;9.60;99.90;;;;;;5034302;28;20032;-73
2022/12/21 02:17:29;;;;;;;1999.90;999.90;;;9.60;99.90;;;;;;5034294;28;20492;-74
2022/12/21 02:20:30;;;;;;;1999.90;999.90;;;9.60;99.90;;;;;;5035077;28;20025;-73
2022/12/21 02:23:14;;;;;;;1999.90;999.90;;;9.50;99.90;;;;;;5053486;28;20464;-73
2022/12/21 02:25:48;;;;;;;;;;;9.50;99.90;;;;;;5054002;28;20036;-73
2022/12/21 02:28:39;;;;;;;1999.90;999.90;;;9.50;99.90;;;;;;5052666;28;19928;-74
2022/12/21 02:31:24;;;;;;;1999.90;999.90;;;9.40;99.90;;;;;;5052869;28;20032;-74
2022/12/21 02:34:15;;;;;;;1999.90;999.90;;;9.40;99.90;;;;;;5053749;28;20112;-73
2022/12/21 02:36:57;;;;;;;1999.90;999.90;;;9.30;99.90;;;;;;5053705;28;20075;-73
2022/12/21 02:39:28;;;;;;;1999.90;999.90;;;9.30;99.90;;;;;;5053628;28;20029;-73
2022/12/21 02:45:34;;;;;;;;;;;9.10;99.90;;;;;;5047625;28;20090;-73
2022/12/21 02:48:14;;;;;;;1999.90;999.90;;;9.10;99.90;;;;;;5053546;28;20003;-75
2022/12/21 02:50:44;;;;;;;1999.90;999.90;;;9.10;99.90;;;;;;5053367;28;20029;-73
2022/12/21 02:53:15;;;;;;;1999.90;999.90;;;9.10;99.90;;;;;;5052419;28;20461;-74
2022/12/21 02:55:43;;;;;;;1999.90;999.90;;;9.10;99.90;;;;;;5053125;28;20525;-73
2022/12/21 02:58:21;;;;;;;1999.90;999.90;;;9.00;99.90;;;;;;5053287;28;20068;-73
2022/12/21 03:00:52;;;;;;;1999.90;999.90;;;9.00;99.90;;;;;;5052332;28;20029;-73
2022/12/21 03:03:48;;;;;;;1999.90;999.90;;;9.00;99.90;;;;;;5053267;28;20451;-74
2022/12/21 03:06:59;;;;;;;1999.90;999.90;;;9.00;99.90;;;;;;5051608;28;20033;-73
2022/12/21 03:09:41;;;;;;;1999.90;999.90;;;9.00;99.90;;;;;;5036954;28;20045;-74
2022/12/21 03:12:29;;;;;;;1999.90;999.90;;;8.90;99.90;;;;;;5052758;28;20104;-73
2022/12/21 03:15:11;;;;;;;1999.90;999.90;;;8.80;99.90;;;;;;5053047;28;20021;-74
2022/12/21 03:17:59;;;;;;;1999.90;999.90;;;8.70;99.90;;;;;;5052948;28;20740;-73
2022/12/21 03:20:31;;;;;;;1999.90;999.90;;;8.60;99.90;;;;;;5051538;28;20484;-73
2022/12/21 03:23:08;;;;;;;1999.90;999.90;;;8.70;99.90;;;;;;5052875;28;20021;-73
2022/12/21 03:25:43;;;;;;;1999.90;999.90;;;8.80;99.90;;;;;;5052627;28;20506;-73
2022/12/21 03:28:15;;;;;;;1999.90;999.90;;;8.90;99.90;;;;;;5052674;28;20025;-74
2022/12/21 03:30:47;;;;;;;1999.90;999.90;;;8.90;99.90;;;;;;5051790;28;20028;-73
2022/12/21 03:33:19;;;;;;;1999.90;999.90;;;8.90;99.90;;;;;;5051923;28;20060;-73
2022/12/21 03:35:54;;;;;;;1999.90;999.90;;;8.90;99.90;;;;;;5052879;28;20049;-73
2022/12/21 03:38:34;;;;;;;1999.90;999.90;;;8.80;99.90;;;;;;5052634;28;20491;-73
2022/12/21 03:41:04;;;;;;;1999.90;999.90;;;8.70;99.90;;;;;;5052173;28;20559;-73
2022/12/21 03:43:34;;;;;;;1999.90;999.90;;;8.70;99.90;;;;;;5052440;28;20134;-73
2022/12/21 03:46:16;;;;;;;1999.90;999.90;;;8.60;99.90;;;;;;5052552;28;20033;-73
2022/12/21 03:48:52;;;;;;;1999.90;999.90;;;8.60;99.90;;;;;;5052778;28;20052;-73
2022/12/21 03:51:24;;;;;;;1999.90;999.90;;;8.60;99.90;;;;;;5052165;28;20116;-73
2022/12/21 03:53:59;;;;;;;1999.90;999.90;;;8.60;99.90;;;;;;5052475;28;20024;-73
2022/12/21 03:56:30;;;;;;;1999.90;999.90;;;8.60;99.90;;;;;;5052031;28;20032;-73
2022/12/21 03:58:57;;;;;;;1999.90;999.90;;;8.60;99.90;;;;;;5052594;28;20048;-73
2022/12/21 04:01:42;;;;;;;1999.90;999.90;;;8.70;99.90;;;;;;5052164;28;20031;-73
2022/12/21 04:04:20;;;;;;;1999.90;999.90;;;8.80;99.90;;;;;;5052229;28;20393;-73
2022/12/21 04:06:49;;;;;;;1999.90;999.90;;;8.90;99.90;;;;;;5052317;28;20492;-73
2022/12/21 04:09:15;;;;;;;1999.90;999.90;;;8.90;99.90;;;;;;5052043;28;20036;-73
2022/12/21 04:14:27;;;;;;;1999.90;999.90;;;8.90;99.90;;;;;;5052386;28;20167;-73
2022/12/21 04:16:52;;;;;;;1999.90;999.90;;;8.90;99.90;;;;;;5051810;28;20108;-73
2022/12/21 04:20:03;;;;;;;1999.90;999.90;;;9.00;99.90;;;;;;5051937;28;20032;-73
2022/12/21 04:22:04;;;;;;;1999.90;999.90;;;9.00;99.90;;;;;;5044435;28;20403;-73
2022/12/21 04:29:58;;;;;;;1999.90;999.90;;;9.10;99.90;;;;;;5051562;28;20108;-73
2022/12/21 04:32:23;;;;;;;1999.90;999.90;;;9.20;99.90;;;;;;5051377;28;20471;-73
2022/12/21 04:34:49;;;;;;;1999.90;999.90;;;9.20;99.90;;;;;;5052060;28;20027;-73
2022/12/21 04:40:09;;;;;;;1999.90;999.90;;;9.20;99.90;;;;;;5051180;28;20041;-73
2022/12/21 04:42:38;;;;;;;1999.90;999.90;;;9.20;99.90;;;;;;5051638;28;20078;-73
2022/12/21 04:45:04;;;;;;;1999.90;999.90;;;9.20;99.90;;;;;;5052365;28;20025;-74
2022/12/21 04:47:30;;;;;;;1999.90;999.90;;;9.20;99.90;;;;;;5055995;28;20152;-74
2022/12/21 04:49:55;;;;;;;1999.90;999.90;;;9.20;99.90;;;;;;5055468;28;20115;-74
2022/12/21 04:52:21;;;;;;;1999.90;999.90;;;9.20;99.90;;;;;;5055855;28;20029;-74
2022/12/21 04:54:47;;;;;;;1999.90;999.90;;;9.20;99.90;;;;;;5055854;28;20645;-75
2022/12/21 04:57:12;;;;;;;1999.90;999.90;;;9.20;99.90;;;;;;5055519;28;20499;-74
2022/12/21 04:59:38;;;;;;;1999.90;999.90;;;9.20;99.90;;;;;;5055592;28;20112;-73
2022/12/21 05:02:04;;;;;;;1999.90;999.90;;;9.10;99.90;;;;;;5055449;28;20032;-74
2022/12/21 05:04:29;;;;;;;1999.90;999.90;;;9.10;99.90;;;;;;5055417;28;20057;-74
2022/12/21 05:06:55;;;;;;;1999.90;999.90;;;9.00;99.90;;;;;;5055660;28;20025;-74
2022/12/21 05:09:21;;;;;;;1999.90;999.90;;;9.00;99.90;;;;;;5055092;28;20021;-73
2022/12/21 05:11:46;;;;;;;1999.90;999.90;;;9.00;99.90;;;;;;5054954;28;20117;-74
2022/12/21 05:14:12;;;;;;;1999.90;999.90;;;9.00;99.90;;;;;;5055069;28;20048;-74
2022/12/21 05:16:38;;;;;;;1999.90;999.90;;;9.00;99.90;;;;;;5055506;28;20399;-73
2022/12/21 05:19:04;;;;;;;1999.90;999.90;;;9.00;99.90;;;;;;5055671;28;20021;-73
2022/12/21 05:21:29;;;;;;;1999.90;999.90;;;9.00;99.90;;;;;;5054765;28;20029;-75
2022/12/21 05:23:55;;;;;;;1999.90;999.90;;;9.00;99.90;;;;;;5054775;28;20036;-73
2022/12/21 05:26:21;;;;;;;1999.90;999.90;;;9.10;99.90;;;;;;5054520;28;20021;-73
2022/12/21 05:28:46;;;;;;;1999.90;999.90;;;9.10;99.90;;;;;;5053813;28;20067;-73
2022/12/21 05:31:13;;;;;;;1999.90;999.90;;;9.10;99.90;;;;;;5054176;28;20040;-73
2022/12/21 05:33:39;;;;;;;1999.90;999.90;;;9.30;99.90;;;;;;5054903;28;20013;-73
2022/12/21 05:36:07;;;;;;;1999.90;999.90;;;9.50;99.90;;;;;;5054839;28;20522;-73
2022/12/21 05:38:33;;;;;;;1999.90;999.90;;;9.60;99.90;;;;;;5054958;28;20036;-74
2022/12/21 05:40:59;;;;;;;1999.90;999.90;;;9.70;99.90;;;;;;5054562;28;20033;-72
2022/12/21 05:43:24;;;;;;;1999.90;999.90;;;9.80;99.90;;;;;;5054845;28;20066;-73
2022/12/21 05:45:50;;;;;;;1999.90;999.90;;;9.80;99.90;;;;;;5054661;28;20044;-74
2022/12/21 05:48:16;;;;;;;1999.90;999.90;;;9.90;99.90;;;;;;5054762;28;20025;-73
2022/12/21 05:50:42;;;;;;;1999.90;999.90;;;10.00;99.90;;;;;;5054624;28;20029;-73
2022/12/21 05:53:08;;;;;;;1999.90;999.90;;;10.00;99.90;;;;;;5054721;28;20025;-73
2022/12/21 05:55:35;;;;;;;1999.90;999.90;;;10.10;99.90;;;;;;5053590;28;20025;-73
2022/12/21 05:58:01;;;;;;;1999.90;999.90;;;10.00;99.90;;;;;;5053357;28;20023;-74
2022/12/21 06:00:27;;;;;;;1999.90;999.90;;;10.00;99.90;;;;;;5054558;28;20544;-73
2022/12/21 06:02:53;;;;;;;1999.90;999.90;;;10.00;99.90;;;;;;5054755;28;20086;-73
2022/12/21 06:05:19;;;;;;;1999.90;999.90;;;10.10;99.90;;;;;;5034290;28;20120;-72
2022/12/21 06:07:45;;;;;;;1999.90;999.90;;;10.20;99.90;;;;;;5034523;28;20465;-73
2022/12/21 06:10:10;;;;;;;1999.90;999.90;;;10.30;99.90;;;;;;5034316;28;20044;-73
2022/12/21 06:12:36;;;;;;;1999.90;999.90;;;10.30;99.90;;;;;;5033918;28;20132;-73
2022/12/21 06:15:02;;;;;;;1999.90;999.90;;;10.30;99.90;;;;;;5034385;28;20448;-73
2022/12/21 06:17:29;;;;;;;1999.90;999.90;;;10.30;99.90;;;;;;5033335;28;20029;-73
2022/12/21 06:19:55;;;;;;;1999.90;999.90;;;10.40;99.90;;;;;;5032539;28;20381;-73
2022/12/21 06:22:21;;;;;;;1999.90;999.90;;;10.40;99.90;;;;;;5033945;28;20037;-73
2022/12/21 06:24:46;;;;;;;1999.90;999.90;;;10.40;99.90;;;;;;5033844;28;20026;-73
2022/12/21 06:27:12;;;;;;;1999.90;999.90;;;10.50;99.90;;;;;;5033437;28;20032;-74
2022/12/21 06:29:37;;;;;;;1999.90;999.90;;;10.40;99.90;;;;;;5033532;28;20037;-73
2022/12/21 06:32:03;;;;;;;1999.90;999.90;;;10.40;99.90;;;;;;5033165;28;20064;-73
2022/12/21 06:34:29;;;;;;;1999.90;999.90;;;10.50;99.90;;;;;;5033421;28;20030;-74
2022/12/21 06:36:55;;;;;;;1999.90;999.90;;;10.50;99.90;;;;;;5034430;28;20465;-73
2022/12/21 06:39:20;;;;;;;1999.90;999.90;;;10.50;99.90;;;;;;5045946;28;20033;-73
2022/12/21 06:41:46;;;;;;;1999.90;999.90;;;10.60;99.90;;;;;;5044083;28;20048;-73
2022/12/21 06:44:12;;;;;;;1999.90;999.90;;;10.60;99.90;;;;;;5033763;28;20056;-72
2022/12/21 06:46:38;;;;;;;1999.90;999.90;;;10.60;99.90;;;;;;5052743;28;20499;-74
2022/12/21 06:49:03;;;;;;;1999.90;999.90;;;10.60;99.90;;;;;;5042726;28;20029;-73
2022/12/21 06:51:29;;;;;;;1999.90;999.90;;;10.70;99.90;;;;;;5013927;28;20505;-73
2022/12/21 06:53:55;;;;;;;1999.90;999.90;;;10.70;99.90;;;;;;5021867;28;20097;-72
2022/12/21 06:56:26;;;;;;;1999.90;999.90;;;10.80;99.90;;;;;;5025619;28;20456;-72
2022/12/21 06:58:53;;;;;;;1999.90;999.90;;;10.80;99.90;;;;;;5031491;28;20503;-75
2022/12/21 07:01:24;;;;;;;1999.90;999.90;;;10.80;99.90;;;;;;5022649;28;20489;-73
2022/12/21 07:03:50;;;;;;;1999.90;999.90;;;10.90;99.90;;;;;;5036990;28;20503;-75
2022/12/21 07:06:18;;;;;;;1999.90;999.90;;;10.90;99.90;;;;;;5050009;28;20123;-73
2022/12/21 07:08:44;;;;;;;1999.90;999.90;;;10.90;99.90;;;;;;5051885;28;20036;-74
2022/12/21 07:11:12;;;;;;;1999.90;999.90;;;10.90;99.90;;;;;;5049510;28;20467;-73
2022/12/21 07:13:41;;;;;;;1999.90;999.90;;;10.90;99.90;;;;;;5048870;28;20494;-74
2022/12/21 07:16:08;;;;;;;1999.90;999.90;;;11.00;99.90;;;;;;5046243;28;20025;-72
2022/12/21 07:18:36;;;;;;;1999.90;999.90;;;11.00;99.90;;;;;;5048390;28;20048;-74
2022/12/21 07:21:05;;;;;;;1999.90;999.90;;;11.00;99.90;;;;;;5045776;28;20033;-72
2022/12/21 07:23:32;;;;;;;1999.90;999.90;;;11.00;99.90;;;;;;5048455;28;20559;-72
2022/12/21 07:25:58;;;;;;;1999.90;999.90;;;11.00;99.90;;;;;;5037606;28;20051;-75
2022/12/21 07:28:24;;;;;;;1999.90;999.90;;;10.90;99.90;;;;;;5047307;28;21651;-72
2022/12/21 07:31:03;;;;;;;1999.90;999.90;;;10.80;99.90;;;;;;5046210;28;20029;-75
2022/12/21 07:33:29;;;;;;;1999.90;999.90;;;10.70;99.90;;;;;;5050740;28;20044;-73
2022/12/21 07:35:59;;;;;;;1999.90;999.90;;;10.60;99.90;;;;;;5049394;28;20028;-73
2022/12/21 07:38:27;;;;;;;1999.90;999.90;;;10.60;99.90;;;;;;5048154;28;20041;-72
2022/12/21 07:41:02;;;;;;;1999.90;999.90;;;10.60;99.90;;;;;;5051183;28;20024;-74
2022/12/21 07:43:29;;;;;;;1999.90;999.90;;;10.60;99.90;;;;;;5051366;28;20037;-75
2022/12/21 07:45:55;;;;;;;1999.90;999.90;;;10.60;99.90;;;;;;5048919;28;20547;-75
2022/12/21 07:48:22;;;;;;;1999.90;999.90;;;10.60;99.90;;;;;;5048102;28;20128;-74
2022/12/21 07:50:49;;;;;;;1999.90;999.90;;;10.70;99.90;;;;;;5043600;28;20106;-74
2022/12/21 07:53:16;;;;;;;1999.90;999.90;;;10.80;99.90;;;;;;5048593;28;20499;-74
2022/12/21 07:55:42;;;;;;;1999.90;999.90;;;10.80;99.90;;;;;;5052970;28;20020;-74
2022/12/21 07:58:08;;;;;;;1999.90;999.90;;;10.90;99.90;;;;;;5050026;28;20388;-72
2022/12/21 08:00:34;;;;;;;1999.90;999.90;;;11.00;99.90;;;;;;5042619;28;20514;-75
2022/12/21 08:03:00;;;;;;;1999.90;999.90;;;11.10;99.90;;;;;;5039519;28;20036;-73
2022/12/21 08:05:26;;;;;;;1999.90;999.90;;;11.20;99.90;;;;;;5042969;28;20120;-72
2022/12/21 08:07:52;;;;;;;1999.90;999.90;;;11.30;99.90;;;;;;5049286;28;20502;-75
2022/12/21 08:10:18;;;;;;;1999.90;999.90;;;11.40;99.90;;;;;;5049293;28;20072;-75
2022/12/21 08:12:44;;;;;;;1999.90;999.90;;;11.40;99.90;;;;;;5041283;28;20025;-75
2022/12/21 08:15:10;;;;;;;1999.90;999.90;;;11.50;99.90;;;;;;5052438;28;20017;-74
2022/12/21 08:17:35;;;;;;;1999.90;999.90;;;11.50;99.90;;;;;;5035398;28;20029;-73
2022/12/21 08:20:02;;;;;;;1999.90;999.90;;;11.60;99.90;;;;;;5044547;28;20025;-73
2022/12/21 08:22:29;;;;;;;1999.90;999.90;;;11.60;99.90;;;;;;5039440;28;20120;-75
2022/12/21 08:24:54;;;;;;;1999.90;999.90;;;11.70;99.90;;;;;;5049909;28;20029;-73
2022/12/21 08:27:20;;;;;;;1999.90;999.90;;;11.70;99.90;;;;;;5046298;28;20675;-73
2022/12/21 08:29:46;;;;;;;1999.90;999.90;;;11.80;99.90;;;;;;5046969;28;20055;-72
2022/12/21 08:32:11;;;;;;;1999.90;999.90;;;11.80;99.90;;;;;;5046260;28;20033;-73
2022/12/21 08:34:37;;;;;;;1999.90;999.90;;;11.80;99.90;;;;;;5043178;28;20104;-74
2022/12/21 08:37:02;;;;;;;1999.90;999.90;;;11.80;99.90;;;;;;5045881;28;20049;-76
2022/12/21 08:39:28;;;;;;;1999.90;999.90;;;11.80;99.90;;;;;;5045506;28;20056;-73
2022/12/21 08:41:54;;;;;;;1999.90;999.90;;;11.80;99.90;;;;;;5048344;28;20531;-74
2022/12/21 08:44:19;;;;;;;1999.90;999.90;;;11.80;99.90;;;;;;5045004;28;20029;-73
2022/12/21 08:46:45;;;;;;;1999.90;999.90;;;11.80;99.90;;;;;;5047480;28;20546;-77
2022/12/21 08:49:11;;;;;;;1999.90;999.90;;;11.70;99.90;;;;;;5046233;28;20029;-73
2022/12/21 08:51:37;;;;;;;1999.90;999.90;;;11.70;99.90;;;;;;5034202;28;20484;-74
2022/12/21 08:54:04;;;;;;;1999.90;999.90;;;11.70;99.90;;;;;;5039326;28;20029;-73
2022/12/21 08:56:30;;;;;;;1999.90;999.90;;;11.70;99.90;;;;;;5047990;28;20032;-74
2022/12/21 08:59:00;;;;;;;1999.90;999.90;;;11.80;99.90;;;;;;5038725;28;20025;-74
2022/12/21 09:01:26;;;;;;;1999.90;999.90;;;11.80;99.90;;;;;;5040528;28;20408;-74
2022/12/21 09:03:52;;;;;;;1999.90;999.90;;;11.80;99.90;;;;;;5043718;28;20052;-74
2022/12/21 09:06:17;;;;;;;1999.90;999.90;;;11.80;99.90;;;;;;5042763;28;20100;-74
2022/12/21 09:08:43;;;;;;;1999.90;999.90;;;11.80;99.90;;;;;;5038620;28;20033;-74
2022/12/21 09:11:10;;;;;;;1999.90;999.90;;;11.80;99.90;;;;;;5036312;28;20088;-74
2022/12/21 09:13:37;;;;;;;1999.90;999.90;;;11.90;99.90;;;;;;5036418;28;20112;-74
2022/12/21 09:16:10;;;;;;;1999.90;999.90;;;12.00;99.90;;;;;;5035398;28;20033;-73
2022/12/21 09:18:35;;;;;;;1999.90;999.90;;;12.00;99.90;;;;;;5036887;28;20017;-73
2022/12/21 09:21:01;;;;;;;1999.90;999.90;;;12.10;99.90;;;;;;5035264;28;20522;-73
2022/12/21 09:23:27;;;;;;;1999.90;999.90;;;12.00;99.90;;;;;;5041285;28;20036;-74
2022/12/21 09:25:52;;;;;;;1999.90;999.90;;;12.00;99.90;;;;;;5043940;28;20108;-73
2022/12/21 09:28:18;;;;;;;1999.90;999.90;;;12.00;99.90;;;;;;5051086;28;20041;-75
2022/12/21 09:30:43;;;;;;;1999.90;999.90;;;12.00;99.90;;;;;;5039366;28;20033;-74
2022/12/21 09:33:09;;;;;;;1999.90;999.90;;;11.90;99.90;;;;;;5039201;28;20022;-73
2022/12/21 09:35:36;;;;;;;1999.90;999.90;;;11.90;99.90;;;;;;5044660;28;20036;-74
2022/12/21 09:38:03;;;;;;;1999.90;999.90;;;11.90;99.90;;;;;;5046289;28;20447;-74
2022/12/21 09:40:31;;;;;;;1999.90;999.90;;;11.90;99.90;;;;;;5044634;28;20061;-75
2022/12/21 09:43:15;;;;;;;1999.90;999.90;;;11.90;99.90;;;;;;5042959;28;20876;-75
2022/12/21 09:46:00;;;;;;;1999.90;999.90;;;11.90;99.90;;;;;;5041195;28;20051;-74
2022/12/21 09:48:40;;;;;;;1999.90;999.90;;;11.90;99.90;;;;;;5046002;28;20029;-74
2022/12/21 09:51:18;;;;;;;1999.90;999.90;;;11.90;99.90;;;;;;5040177;28;20480;-74
2022/12/21 09:54:07;;;;;;;1999.90;999.90;;;11.80;99.90;;;;;;5036709;28;20488;-75
2022/12/21 09:56:38;;;;;;;1999.90;999.90;;;11.80;99.90;;;;;;5043533;28;20029;-73
2022/12/21 09:59:07;;;;;;;1999.90;999.90;;;11.80;99.90;;;;;;5040394;28;20527;-74
2022/12/21 10:01:51;;;;;;;1999.90;999.90;;;11.80;99.90;;;;;;5041036;28;20033;-74
2022/12/21 10:04:23;;;;;;;1999.90;999.90;;;11.80;99.90;;;;;;5048448;28;20091;-73
2022/12/21 10:07:02;;;;;;;1999.90;999.90;;;11.80;99.90;;;;;;5047328;28;20048;-75
2022/12/21 10:10:00;;;;;;;1999.90;999.90;;;11.80;99.90;;;;;;5042862;28;20126;-74
2022/12/21 10:12:34;;;;;;;1999.90;999.90;;;11.90;99.90;;;;;;5046193;28;20116;-74
2022/12/21 10:15:16;;;;;;;1999.90;999.90;;;11.90;99.90;;;;;;5047214;28;20035;-74
2022/12/21 10:18:09;;;;;;;1999.90;999.90;;;11.90;99.90;;;;;;5044613;28;20021;-74
2022/12/21 10:20:41;;;;;;;1999.90;999.90;;;11.90;99.90;;;;;;5042294;28;20129;-74
2022/12/21 10:23:26;;;;;;;1999.90;999.90;;;12.00;99.90;;;;;;5036266;28;20033;-74
2022/12/21 10:26:00;;;;;;;1999.90;999.90;;;12.00;99.90;;;;;;5056298;28;20036;-75
2022/12/21 10:28:38;;;;;;;1999.90;999.90;;;12.00;99.90;;;;;;5045538;28;20392;-75
2022/12/21 10:31:12;;;;;;;1999.90;999.90;;;12.10;99.90;;;;;;5040758;28;20503;-75
2022/12/21 10:33:40;;;;;;;1999.90;999.90;;;12.10;99.90;;;;;;5045581;28;20542;-75
2022/12/21 10:36:09;;;;;;;1999.90;999.90;;;12.20;99.90;;;;;;5041695;28;20382;-74
2022/12/21 10:38:35;;;;;;;1999.90;999.90;;;12.20;99.90;;;;;;5040108;28;20048;-74
2022/12/21 10:41:06;;;;;;;1999.90;999.90;;;12.20;99.90;;;;;;5042168;28;20044;-73
2022/12/21 10:43:38;;;;;;;1999.90;999.90;;;12.20;99.90;;;;;;5038875;28;20063;-74
2022/12/21 10:46:05;;;;;;;1999.90;999.90;;;12.20;99.90;;;;;;5041993;28;20108;-74
2022/12/21 10:48:32;;;;;;;1999.90;999.90;;;12.20;99.90;;;;;;5038309;28;20276;-74
2022/12/21 10:51:14;;;;;;;1999.90;999.90;;;12.20;99.90;;;;;;5045523;28;20168;-73
2022/12/21 10:53:40;;;;;;;1999.90;999.90;;;12.20;99.90;;;;;;5047915;28;20112;-73
2022/12/21 10:56:06;;;;;;;1999.90;999.90;;;12.20;99.90;;;;;;5049188;28;20094;-75
2022/12/21 10:58:35;;;;;;;1999.90;999.90;;;12.30;99.90;;;;;;5039580;28;20033;-75
2022/12/21 11:01:05;;;;;;;1999.90;999.90;;;12.30;99.90;;;;;;5049411;28;20031;-73
2022/12/21 11:03:34;;;;;;;1999.90;999.90;;;12.40;99.90;;;;;;5038199;28;20123;-74
2022/12/21 11:06:12;;;;;;;1999.90;999.90;;;12.50;99.90;;;;;;5041320;28;20056;-74
2022/12/21 11:08:50;;;;;;;1999.90;999.90;;;12.60;99.90;;;;;;5048651;28;20086;-73
2022/12/21 11:11:34;;;;;;;1999.90;999.90;;;12.60;99.90;;;;;;5062733;28;20029;-75
2022/12/21 11:13:59;;;;;;;1999.90;999.90;;;12.80;99.90;;;;;;5050526;28;20025;-74
2022/12/21 11:16:28;;;;;;;1999.90;999.90;;;12.90;99.90;;;;;;5049742;28;20032;-75
2022/12/21 11:18:59;;;;;;;1999.90;999.90;;;12.90;99.90;;;;;;5046684;28;20030;-75
2022/12/21 11:21:39;;;;;;;1999.90;999.90;;;13.00;99.90;;;;;;5048121;28;20029;-76
2022/12/21 11:24:10;;;;;;;1999.90;999.90;;;12.80;99.90;;;;;;5045135;28;20048;-74
2022/12/21 11:26:44;;;;;;;1999.90;999.90;;;12.80;99.90;;;;;;5038961;28;20170;-74
2022/12/21 11:29:27;;;;;;;1999.90;999.90;;;12.80;99.90;;;;;;5036311;28;20033;-76
2022/12/21 11:31:54;;;;;;;1999.90;999.90;;;12.80;99.90;;;;;;5024386;28;20063;-76
2022/12/21 11:34:25;;;;;;;1999.90;999.90;;;12.70;99.90;;;;;;5042665;28;20045;-73
2022/12/21 11:37:00;;;;;;;1999.90;999.90;;;12.60;99.90;;;;;;5041484;28;20032;-74
2022/12/21 11:39:26;;;;;;;1999.90;999.90;;;12.70;99.90;;;;;;5032683;28;20384;-75
2022/12/21 11:41:53;;;;;;;1999.90;999.90;;;12.60;99.90;;;;;;5026470;28;20025;-75
2022/12/21 11:44:26;;;;;;;1999.90;999.90;;;12.70;99.90;;;;;;5030605;28;20304;-72
2022/12/21 11:47:10;;;;;;;1999.90;999.90;;;12.60;99.90;;;;;;5042110;28;20040;-75
2022/12/21 11:50:17;;;;;;;1999.90;999.90;;;12.60;99.90;;;;;;5045436;28;20082;-74
2022/12/21 11:53:24;;;;;;;1999.90;999.90;;;12.70;99.90;;;;;;5039837;28;20048;-76
2022/12/21 11:56:14;;;;;;;1999.90;999.90;;;12.60;99.90;;;;;;5033963;28;20066;-75
2022/12/21 11:58:40;;;;;;;1999.90;999.90;;;12.70;99.90;;;;;;5051691;28;20035;-77
2022/12/21 12:01:22;;;;;;;1999.90;999.90;;;12.70;99.90;;;;;;5039676;28;20128;-74
2022/12/21 12:04:08;;;;;;;1999.90;999.90;;;12.70;99.90;;;;;;5038246;28;20168;-75
2022/12/21 12:06:55;;;;;;;1999.90;999.90;;;12.70;99.90;;;;;;5041829;28;20044;-76
2022/12/21 12:09:38;;;;;;;1999.90;999.90;;;12.70;99.90;;;;;;5061883;28;20028;-75
2022/12/21 12:12:33;;;;;;;1999.90;999.90;;;12.70;99.90;;;;;;5048145;28;20029;-76
2022/12/21 12:15:26;;;;;;;1999.90;999.90;;;12.60;99.90;;;;;;5021432;28;20123;-75
2022/12/21 12:18:06;;;;;;;1999.90;999.90;;;12.60;99.90;;;;;;5043887;28;20024;-75
2022/12/21 12:21:02;;;;;;;1999.90;999.90;;;12.60;99.90;;;;;;5046082;28;20114;-75
2022/12/21 12:23:55;;;;;;;1999.90;999.90;;;12.60;99.90;;;;;;5026563;28;20517;-75
2022/12/21 12:27:08;;;;;;;1999.90;999.90;;;12.60;99.90;;;;;;5032703;28;20565;-75
2022/12/21 12:30:06;;;;;;;1999.90;999.90;;;12.50;99.90;;;;;;5013525;28;20045;-74
2022/12/21 12:32:42;;;;;;;1999.90;999.90;;;12.60;99.90;;;;;;5023755;28;20041;-76
2022/12/21 12:35:22;;;;;;;1999.90;999.90;;;12.70;99.90;;;;;;5039721;28;20043;-75
2022/12/21 12:38:03;;;;;;;1999.90;999.90;;;12.70;99.90;;;;;;5047881;28;20524;-75